sensor_id;sensor_type;location;lat;lon;timestamp;P1;durP1;ratioP1;P2;durP2;ratioP2
46334;SDS011;32051;48.882;9.210;2023-05-29T00:00:20;5.55;;;2.83;;
46334;SDS011;32051;48.882;9.210;2023-05-29T00:02:46;4.05;;;2.80;;
46334;SDS011;32051;48.882;9.210;2023-05-29T00:05:12;7.72;;;3.45;;
46334;SDS011;32051;48.882;9.210;2023-05-29T00:07:39;4.82;;;4.05;;
46334;SDS011;32051;48.882;9.210;2023-05-29T00:10:05;3.42;;;3.13;;
46334;SDS011;32051;48.882;9.210;2023-05-29T00:12:32;4.13;;;3.35;;
46334;SDS011;32051;48.882;9.210;2023-05-29T00:14:58;4.75;;;3.08;;
46334;SDS011;32051;48.882;9.210;2023-05-29T00:17:24;2.97;;;2.60;;
46334;SDS011;32051;48.882;9.210;2023-05-29T00:19:50;11.10;;;3.42;;
46334;SDS011;32051;48.882;9.210;2023-05-29T00:22:16;4.07;;;2.60;;
46334;SDS011;32051;48.882;9.210;2023-05-29T00:24:42;3.58;;;2.85;;
46334;SDS011;32051;48.882;9.210;2023-05-29T00:27:09;4.53;;;3.00;;
46334;SDS011;32051;48.882;9.210;2023-05-29T00:29:36;5.78;;;2.92;;
46334;SDS011;32051;48.882;9.210;2023-05-29T00:32:03;7.78;;;2.88;;
46334;SDS011;32051;48.882;9.210;2023-05-29T00:34:30;8.57;;;3.25;;
46334;SDS011;32051;48.882;9.210;2023-05-29T00:36:56;4.45;;;3.22;;
46334;SDS011;32051;48.882;9.210;2023-05-29T00:39:23;6.32;;;2.40;;
46334;SDS011;32051;48.882;9.210;2023-05-29T00:41:49;3.85;;;3.10;;
46334;SDS011;32051;48.882;9.210;2023-05-29T00:44:19;6.80;;;3.55;;
46334;SDS011;32051;48.882;9.210;2023-05-29T00:46:46;3.33;;;3.03;;
46334;SDS011;32051;48.882;9.210;2023-05-29T00:49:12;3.47;;;2.72;;
46334;SDS011;32051;48.882;9.210;2023-05-29T00:51:39;4.30;;;3.30;;
46334;SDS011;32051;48.882;9.210;2023-05-29T00:54:06;3.38;;;2.95;;
46334;SDS011;32051;48.882;9.210;2023-05-29T00:56:35;3.08;;;2.78;;
46334;SDS011;32051;48.882;9.210;2023-05-29T00:59:01;4.53;;;2.90;;
46334;SDS011;32051;48.882;9.210;2023-05-29T01:01:28;7.72;;;2.95;;
46334;SDS011;32051;48.882;9.210;2023-05-29T01:03:57;4.00;;;3.13;;
46334;SDS011;32051;48.882;9.210;2023-05-29T01:06:26;8.20;;;2.90;;
46334;SDS011;32051;48.882;9.210;2023-05-29T01:08:52;3.80;;;3.15;;
46334;SDS011;32051;48.882;9.210;2023-05-29T01:13:47;4.45;;;3.20;;
46334;SDS011;32051;48.882;9.210;2023-05-29T01:16:20;7.40;;;2.65;;
46334;SDS011;32051;48.882;9.210;2023-05-29T01:24:08;3.97;;;2.53;;
46334;SDS011;32051;48.882;9.210;2023-05-29T01:26:44;4.65;;;3.10;;
46334;SDS011;32051;48.882;9.210;2023-05-29T01:29:12;3.25;;;2.42;;
46334;SDS011;32051;48.882;9.210;2023-05-29T01:31:39;9.30;;;3.20;;
46334;SDS011;32051;48.882;9.210;2023-05-29T01:34:05;4.28;;;3.65;;
46334;SDS011;32051;48.882;9.210;2023-05-29T01:36:31;6.55;;;3.30;;
46334;SDS011;32051;48.882;9.210;2023-05-29T01:38:58;4.28;;;2.95;;
46334;SDS011;32051;48.882;9.210;2023-05-29T01:41:25;7.78;;;3.08;;
46334;SDS011;32051;48.882;9.210;2023-05-29T01:43:51;9.25;;;2.88;;
46334;SDS011;32051;48.882;9.210;2023-05-29T01:46:18;12.15;;;2.90;;
46334;SDS011;32051;48.882;9.210;2023-05-29T01:48:45;6.65;;;3.35;;
46334;SDS011;32051;48.882;9.210;2023-05-29T01:51:12;3.30;;;2.53;;
46334;SDS011;32051;48.882;9.210;2023-05-29T01:53:38;9.65;;;2.83;;
46334;SDS011;32051;48.882;9.210;2023-05-29T01:56:05;3.60;;;2.50;;
46334;SDS011;32051;48.882;9.210;2023-05-29T01:58:32;7.30;;;3.97;;
46334;SDS011;32051;48.882;9.210;2023-05-29T02:00:59;6.57;;;3.30;;
46334;SDS011;32051;48.882;9.210;2023-05-29T02:03:25;3.40;;;3.10;;
46334;SDS011;32051;48.882;9.210;2023-05-29T02:05:54;12.27;;;4.13;;
46334;SDS011;32051;48.882;9.210;2023-05-29T02:08:21;5.03;;;3.58;;
46334;SDS011;32051;48.882;9.210;2023-05-29T02:10:47;7.35;;;3.60;;
46334;SDS011;32051;48.882;9.210;2023-05-29T02:13:13;5.82;;;3.45;;
46334;SDS011;32051;48.882;9.210;2023-05-29T02:15:39;7.72;;;3.72;;
46334;SDS011;32051;48.882;9.210;2023-05-29T02:18:09;4.72;;;2.88;;
46334;SDS011;32051;48.882;9.210;2023-05-29T02:20:37;5.13;;;4.28;;
46334;SDS011;32051;48.882;9.210;2023-05-29T02:23:03;5.90;;;3.15;;
46334;SDS011;32051;48.882;9.210;2023-05-29T02:25:29;6.00;;;3.75;;
46334;SDS011;32051;48.882;9.210;2023-05-29T02:27:56;4.60;;;3.50;;
46334;SDS011;32051;48.882;9.210;2023-05-29T02:30:22;9.65;;;4.32;;
46334;SDS011;32051;48.882;9.210;2023-05-29T02:32:48;8.48;;;3.58;;
46334;SDS011;32051;48.882;9.210;2023-05-29T02:35:14;5.03;;;3.17;;
46334;SDS011;32051;48.882;9.210;2023-05-29T02:37:42;3.40;;;3.10;;
46334;SDS011;32051;48.882;9.210;2023-05-29T02:40:08;4.32;;;3.17;;
46334;SDS011;32051;48.882;9.210;2023-05-29T02:42:37;3.97;;;3.58;;
46334;SDS011;32051;48.882;9.210;2023-05-29T02:45:03;8.15;;;3.63;;
46334;SDS011;32051;48.882;9.210;2023-05-29T02:47:31;5.95;;;3.05;;
46334;SDS011;32051;48.882;9.210;2023-05-29T02:49:57;6.82;;;3.47;;
46334;SDS011;32051;48.882;9.210;2023-05-29T02:52:23;4.25;;;3.83;;
46334;SDS011;32051;48.882;9.210;2023-05-29T02:54:49;4.05;;;3.53;;
46334;SDS011;32051;48.882;9.210;2023-05-29T02:57:15;4.72;;;4.20;;
46334;SDS011;32051;48.882;9.210;2023-05-29T02:59:41;5.57;;;3.60;;
46334;SDS011;32051;48.882;9.210;2023-05-29T03:02:09;4.80;;;3.50;;
46334;SDS011;32051;48.882;9.210;2023-05-29T03:04:35;10.63;;;3.25;;
46334;SDS011;32051;48.882;9.210;2023-05-29T03:07:01;8.27;;;3.97;;
46334;SDS011;32051;48.882;9.210;2023-05-29T03:09:30;6.45;;;3.90;;
46334;SDS011;32051;48.882;9.210;2023-05-29T03:11:56;6.95;;;3.50;;
46334;SDS011;32051;48.882;9.210;2023-05-29T03:14:22;7.20;;;3.90;;
46334;SDS011;32051;48.882;9.210;2023-05-29T03:16:48;8.95;;;4.25;;
46334;SDS011;32051;48.882;9.210;2023-05-29T03:19:16;4.78;;;3.13;;
46334;SDS011;32051;48.882;9.210;2023-05-29T03:21:42;8.40;;;4.78;;
46334;SDS011;32051;48.882;9.210;2023-05-29T03:24:08;5.85;;;3.97;;
46334;SDS011;32051;48.882;9.210;2023-05-29T03:26:36;4.50;;;3.85;;
46334;SDS011;32051;48.882;9.210;2023-05-29T03:29:03;4.50;;;3.28;;
46334;SDS011;32051;48.882;9.210;2023-05-29T03:31:31;7.13;;;4.60;;
46334;SDS011;32051;48.882;9.210;2023-05-29T03:33:57;8.90;;;3.60;;
46334;SDS011;32051;48.882;9.210;2023-05-29T03:36:40;8.00;;;4.20;;
46334;SDS011;32051;48.882;9.210;2023-05-29T03:39:07;6.70;;;4.10;;
46334;SDS011;32051;48.882;9.210;2023-05-29T03:41:33;3.42;;;3.13;;
46334;SDS011;32051;48.882;9.210;2023-05-29T03:43:59;5.78;;;3.85;;
46334;SDS011;32051;48.882;9.210;2023-05-29T03:46:27;5.13;;;3.25;;
46334;SDS011;32051;48.882;9.210;2023-05-29T03:48:53;9.02;;;3.60;;
46334;SDS011;32051;48.882;9.210;2023-05-29T03:51:20;12.82;;;3.80;;
46334;SDS011;32051;48.882;9.210;2023-05-29T03:53:47;4.45;;;3.05;;
46334;SDS011;32051;48.882;9.210;2023-05-29T03:56:13;5.18;;;3.65;;
46334;SDS011;32051;48.882;9.210;2023-05-29T03:58:39;7.50;;;3.90;;
46334;SDS011;32051;48.882;9.210;2023-05-29T04:01:06;9.50;;;3.95;;
46334;SDS011;32051;48.882;9.210;2023-05-29T04:03:34;6.93;;;3.42;;
46334;SDS011;32051;48.882;9.210;2023-05-29T04:06:00;4.72;;;3.30;;
46334;SDS011;32051;48.882;9.210;2023-05-29T04:08:26;6.43;;;4.10;;
46334;SDS011;32051;48.882;9.210;2023-05-29T04:10:52;7.28;;;4.00;;
46334;SDS011;32051;48.882;9.210;2023-05-29T04:13:20;4.72;;;3.33;;
46334;SDS011;32051;48.882;9.210;2023-05-29T04:15:46;9.27;;;4.15;;
46334;SDS011;32051;48.882;9.210;2023-05-29T04:18:13;14.00;;;4.18;;
46334;SDS011;32051;48.882;9.210;2023-05-29T04:20:40;7.55;;;4.70;;
46334;SDS011;32051;48.882;9.210;2023-05-29T04:23:06;5.75;;;3.30;;
46334;SDS011;32051;48.882;9.210;2023-05-29T04:25:32;5.32;;;3.35;;
46334;SDS011;32051;48.882;9.210;2023-05-29T04:27:59;5.47;;;4.13;;
46334;SDS011;32051;48.882;9.210;2023-05-29T04:30:27;6.60;;;3.50;;
46334;SDS011;32051;48.882;9.210;2023-05-29T04:32:54;4.20;;;3.30;;
46334;SDS011;32051;48.882;9.210;2023-05-29T04:35:22;9.95;;;3.72;;
46334;SDS011;32051;48.882;9.210;2023-05-29T04:37:56;9.60;;;3.78;;
46334;SDS011;32051;48.882;9.210;2023-05-29T04:40:25;7.82;;;4.43;;
46334;SDS011;32051;48.882;9.210;2023-05-29T04:42:51;5.97;;;3.55;;
46334;SDS011;32051;48.882;9.210;2023-05-29T04:45:19;9.23;;;5.15;;
46334;SDS011;32051;48.882;9.210;2023-05-29T04:47:49;5.07;;;3.42;;
46334;SDS011;32051;48.882;9.210;2023-05-29T04:50:17;4.90;;;3.95;;
46334;SDS011;32051;48.882;9.210;2023-05-29T04:52:43;5.15;;;4.15;;
46334;SDS011;32051;48.882;9.210;2023-05-29T04:55:10;5.72;;;4.07;;
46334;SDS011;32051;48.882;9.210;2023-05-29T04:57:37;7.72;;;3.85;;
46334;SDS011;32051;48.882;9.210;2023-05-29T05:00:05;7.25;;;4.53;;
46334;SDS011;32051;48.882;9.210;2023-05-29T05:02:42;5.68;;;3.85;;
46334;SDS011;32051;48.882;9.210;2023-05-29T05:05:09;5.30;;;4.18;;
46334;SDS011;32051;48.882;9.210;2023-05-29T05:07:35;3.90;;;3.60;;
46334;SDS011;32051;48.882;9.210;2023-05-29T05:10:02;5.07;;;3.88;;
46334;SDS011;32051;48.882;9.210;2023-05-29T05:12:30;5.90;;;4.28;;
46334;SDS011;32051;48.882;9.210;2023-05-29T05:14:56;8.25;;;5.40;;
46334;SDS011;32051;48.882;9.210;2023-05-29T05:17:23;6.30;;;4.18;;
46334;SDS011;32051;48.882;9.210;2023-05-29T05:19:49;5.82;;;4.45;;
46334;SDS011;32051;48.882;9.210;2023-05-29T05:22:17;4.85;;;3.25;;
46334;SDS011;32051;48.882;9.210;2023-05-29T05:24:43;4.03;;;3.25;;
46334;SDS011;32051;48.882;9.210;2023-05-29T05:27:09;10.32;;;3.33;;
46334;SDS011;32051;48.882;9.210;2023-05-29T05:29:35;6.00;;;4.00;;
46334;SDS011;32051;48.882;9.210;2023-05-29T05:32:01;5.13;;;3.03;;
46334;SDS011;32051;48.882;9.210;2023-05-29T05:34:27;6.15;;;3.10;;
46334;SDS011;32051;48.882;9.210;2023-05-29T05:36:53;5.88;;;4.15;;
46334;SDS011;32051;48.882;9.210;2023-05-29T05:39:19;5.10;;;3.35;;
46334;SDS011;32051;48.882;9.210;2023-05-29T05:41:46;5.45;;;3.95;;
46334;SDS011;32051;48.882;9.210;2023-05-29T05:44:25;5.82;;;2.97;;
46334;SDS011;32051;48.882;9.210;2023-05-29T05:46:58;2.83;;;2.53;;
46334;SDS011;32051;48.882;9.210;2023-05-29T05:49:24;3.72;;;2.78;;
46334;SDS011;32051;48.882;9.210;2023-05-29T05:51:50;4.25;;;3.28;;
46334;SDS011;32051;48.882;9.210;2023-05-29T05:54:17;4.03;;;3.05;;
46334;SDS011;32051;48.882;9.210;2023-05-29T05:56:43;2.80;;;2.58;;
46334;SDS011;32051;48.882;9.210;2023-05-29T05:59:12;5.97;;;3.50;;
46334;SDS011;32051;48.882;9.210;2023-05-29T06:01:40;7.40;;;3.67;;
46334;SDS011;32051;48.882;9.210;2023-05-29T06:04:07;8.18;;;4.15;;
46334;SDS011;32051;48.882;9.210;2023-05-29T06:06:34;6.47;;;3.15;;
46334;SDS011;32051;48.882;9.210;2023-05-29T06:09:00;3.60;;;2.65;;
46334;SDS011;32051;48.882;9.210;2023-05-29T06:11:27;4.00;;;3.30;;
46334;SDS011;32051;48.882;9.210;2023-05-29T06:13:54;5.85;;;4.15;;
46334;SDS011;32051;48.882;9.210;2023-05-29T06:16:27;3.88;;;3.40;;
46334;SDS011;32051;48.882;9.210;2023-05-29T06:18:53;7.15;;;3.67;;
46334;SDS011;32051;48.882;9.210;2023-05-29T06:21:19;4.40;;;3.75;;
46334;SDS011;32051;48.882;9.210;2023-05-29T06:23:51;5.40;;;3.72;;
46334;SDS011;32051;48.882;9.210;2023-05-29T06:26:19;5.22;;;3.38;;
46334;SDS011;32051;48.882;9.210;2023-05-29T06:28:47;4.82;;;3.10;;
46334;SDS011;32051;48.882;9.210;2023-05-29T06:31:13;6.68;;;3.55;;
46334;SDS011;32051;48.882;9.210;2023-05-29T06:33:40;4.43;;;3.22;;
46334;SDS011;32051;48.882;9.210;2023-05-29T06:36:06;10.43;;;3.55;;
46334;SDS011;32051;48.882;9.210;2023-05-29T06:38:33;8.40;;;4.20;;
46334;SDS011;32051;48.882;9.210;2023-05-29T06:40:59;3.47;;;3.10;;
46334;SDS011;32051;48.882;9.210;2023-05-29T06:43:26;5.82;;;3.70;;
46334;SDS011;32051;48.882;9.210;2023-05-29T06:45:56;5.68;;;3.53;;
46334;SDS011;32051;48.882;9.210;2023-05-29T06:48:22;5.78;;;3.28;;
46334;SDS011;32051;48.882;9.210;2023-05-29T06:50:49;5.00;;;3.40;;
46334;SDS011;32051;48.882;9.210;2023-05-29T06:53:34;14.00;;;3.28;;
46334;SDS011;32051;48.882;9.210;2023-05-29T06:56:01;3.20;;;2.92;;
46334;SDS011;32051;48.882;9.210;2023-05-29T06:58:29;5.72;;;3.67;;
46334;SDS011;32051;48.882;9.210;2023-05-29T07:00:56;6.45;;;3.15;;
46334;SDS011;32051;48.882;9.210;2023-05-29T07:03:33;10.38;;;3.50;;
46334;SDS011;32051;48.882;9.210;2023-05-29T07:06:01;5.93;;;2.67;;
46334;SDS011;32051;48.882;9.210;2023-05-29T07:08:28;8.60;;;3.33;;
46334;SDS011;32051;48.882;9.210;2023-05-29T07:10:54;5.25;;;3.40;;
46334;SDS011;32051;48.882;9.210;2023-05-29T07:13:20;7.20;;;3.60;;
46334;SDS011;32051;48.882;9.210;2023-05-29T07:15:48;3.50;;;3.20;;
46334;SDS011;32051;48.882;9.210;2023-05-29T07:18:15;3.33;;;2.72;;
46334;SDS011;32051;48.882;9.210;2023-05-29T07:20:41;9.43;;;3.53;;
46334;SDS011;32051;48.882;9.210;2023-05-29T07:23:11;4.68;;;2.55;;
46334;SDS011;32051;48.882;9.210;2023-05-29T07:25:37;5.60;;;3.85;;
46334;SDS011;32051;48.882;9.210;2023-05-29T07:28:03;5.32;;;3.03;;
46334;SDS011;32051;48.882;9.210;2023-05-29T07:30:29;5.43;;;4.03;;
46334;SDS011;32051;48.882;9.210;2023-05-29T07:32:56;6.07;;;3.42;;
46334;SDS011;32051;48.882;9.210;2023-05-29T07:35:22;4.68;;;3.15;;
46334;SDS011;32051;48.882;9.210;2023-05-29T07:37:49;5.90;;;3.10;;
46334;SDS011;32051;48.882;9.210;2023-05-29T07:40:17;3.55;;;2.80;;
46334;SDS011;32051;48.882;9.210;2023-05-29T07:42:58;4.05;;;2.90;;
46334;SDS011;32051;48.882;9.210;2023-05-29T07:45:35;2.90;;;2.58;;
46334;SDS011;32051;48.882;9.210;2023-05-29T07:48:01;4.70;;;3.45;;
46334;SDS011;32051;48.882;9.210;2023-05-29T07:50:29;11.48;;;2.97;;
46334;SDS011;32051;48.882;9.210;2023-05-29T07:52:55;5.80;;;3.17;;
46334;SDS011;32051;48.882;9.210;2023-05-29T07:55:22;4.38;;;3.42;;
46334;SDS011;32051;48.882;9.210;2023-05-29T07:57:49;5.47;;;3.00;;
46334;SDS011;32051;48.882;9.210;2023-05-29T08:00:15;7.15;;;3.03;;
46334;SDS011;32051;48.882;9.210;2023-05-29T08:02:44;3.25;;;2.88;;
46334;SDS011;32051;48.882;9.210;2023-05-29T08:05:33;4.03;;;3.28;;
46334;SDS011;32051;48.882;9.210;2023-05-29T08:08:04;6.78;;;2.47;;
46334;SDS011;32051;48.882;9.210;2023-05-29T08:10:32;4.97;;;2.65;;
46334;SDS011;32051;48.882;9.210;2023-05-29T08:12:58;2.45;;;2.25;;
46334;SDS011;32051;48.882;9.210;2023-05-29T08:15:24;6.35;;;3.15;;
46334;SDS011;32051;48.882;9.210;2023-05-29T08:17:51;5.43;;;3.10;;
46334;SDS011;32051;48.882;9.210;2023-05-29T08:20:17;5.88;;;3.08;;
46334;SDS011;32051;48.882;9.210;2023-05-29T08:22:43;9.40;;;2.70;;
46334;SDS011;32051;48.882;9.210;2023-05-29T08:25:10;4.43;;;2.90;;
46334;SDS011;32051;48.882;9.210;2023-05-29T08:27:36;6.20;;;2.70;;
46334;SDS011;32051;48.882;9.210;2023-05-29T08:30:03;6.50;;;3.47;;
46334;SDS011;32051;48.882;9.210;2023-05-29T08:32:29;10.30;;;3.40;;
46334;SDS011;32051;48.882;9.210;2023-05-29T08:34:55;4.30;;;2.92;;
46334;SDS011;32051;48.882;9.210;2023-05-29T08:37:21;7.90;;;3.30;;
46334;SDS011;32051;48.882;9.210;2023-05-29T08:39:47;3.28;;;2.60;;
46334;SDS011;32051;48.882;9.210;2023-05-29T08:42:17;4.50;;;3.10;;
46334;SDS011;32051;48.882;9.210;2023-05-29T08:44:46;3.92;;;2.53;;
46334;SDS011;32051;48.882;9.210;2023-05-29T08:47:16;6.35;;;2.95;;
46334;SDS011;32051;48.882;9.210;2023-05-29T08:49:45;3.88;;;3.53;;
46334;SDS011;32051;48.882;9.210;2023-05-29T08:52:16;5.18;;;4.10;;
46334;SDS011;32051;48.882;9.210;2023-05-29T08:54:43;5.45;;;3.38;;
46334;SDS011;32051;48.882;9.210;2023-05-29T08:57:10;7.80;;;3.15;;
46334;SDS011;32051;48.882;9.210;2023-05-29T08:59:37;6.38;;;3.22;;
46334;SDS011;32051;48.882;9.210;2023-05-29T09:02:05;4.78;;;2.75;;
46334;SDS011;32051;48.882;9.210;2023-05-29T09:04:31;5.25;;;3.13;;
46334;SDS011;32051;48.882;9.210;2023-05-29T09:06:59;6.13;;;3.25;;
46334;SDS011;32051;48.882;9.210;2023-05-29T09:09:25;6.40;;;4.05;;
46334;SDS011;32051;48.882;9.210;2023-05-29T09:11:55;9.23;;;3.08;;
46334;SDS011;32051;48.882;9.210;2023-05-29T09:14:31;6.28;;;2.63;;
46334;SDS011;32051;48.882;9.210;2023-05-29T09:16:59;4.65;;;3.05;;
46334;SDS011;32051;48.882;9.210;2023-05-29T09:19:25;5.75;;;2.75;;
46334;SDS011;32051;48.882;9.210;2023-05-29T09:21:52;7.68;;;3.25;;
46334;SDS011;32051;48.882;9.210;2023-05-29T09:24:27;5.43;;;3.22;;
46334;SDS011;32051;48.882;9.210;2023-05-29T09:26:53;4.57;;;2.60;;
46334;SDS011;32051;48.882;9.210;2023-05-29T09:29:20;2.95;;;2.75;;
46334;SDS011;32051;48.882;9.210;2023-05-29T09:31:46;5.30;;;2.80;;
46334;SDS011;32051;48.882;9.210;2023-05-29T09:34:12;3.42;;;3.13;;
46334;SDS011;32051;48.882;9.210;2023-05-29T09:36:38;2.88;;;2.25;;
46334;SDS011;32051;48.882;9.210;2023-05-29T09:39:04;3.75;;;3.30;;
46334;SDS011;32051;48.882;9.210;2023-05-29T09:41:34;3.30;;;2.40;;
46334;SDS011;32051;48.882;9.210;2023-05-29T09:44:01;5.70;;;2.97;;
46334;SDS011;32051;48.882;9.210;2023-05-29T09:46:28;3.25;;;2.95;;
46334;SDS011;32051;48.882;9.210;2023-05-29T09:48:54;8.32;;;3.00;;
46334;SDS011;32051;48.882;9.210;2023-05-29T09:51:27;2.88;;;2.30;;
46334;SDS011;32051;48.882;9.210;2023-05-29T09:53:54;4.18;;;2.80;;
46334;SDS011;32051;48.882;9.210;2023-05-29T09:56:22;7.30;;;3.40;;
46334;SDS011;32051;48.882;9.210;2023-05-29T09:58:49;4.70;;;2.63;;
46334;SDS011;32051;48.882;9.210;2023-05-29T10:01:16;3.28;;;2.92;;
46334;SDS011;32051;48.882;9.210;2023-05-29T10:03:42;5.55;;;3.03;;
46334;SDS011;32051;48.882;9.210;2023-05-29T10:06:12;3.67;;;2.92;;
46334;SDS011;32051;48.882;9.210;2023-05-29T10:08:44;3.10;;;2.80;;
46334;SDS011;32051;48.882;9.210;2023-05-29T10:11:14;3.67;;;2.72;;
46334;SDS011;32051;48.882;9.210;2023-05-29T10:13:42;3.40;;;2.30;;
46334;SDS011;32051;48.882;9.210;2023-05-29T10:18:44;6.25;;;2.63;;
46334;SDS011;32051;48.882;9.210;2023-05-29T10:21:11;4.55;;;2.70;;
46334;SDS011;32051;48.882;9.210;2023-05-29T10:23:38;5.47;;;2.65;;
46334;SDS011;32051;48.882;9.210;2023-05-29T10:26:10;5.75;;;2.92;;
46334;SDS011;32051;48.882;9.210;2023-05-29T10:28:39;7.93;;;3.88;;
46334;SDS011;32051;48.882;9.210;2023-05-29T10:31:08;4.80;;;3.22;;
46334;SDS011;32051;48.882;9.210;2023-05-29T10:36:20;3.60;;;2.33;;
46334;SDS011;32051;48.882;9.210;2023-05-29T10:38:49;5.80;;;2.08;;
46334;SDS011;32051;48.882;9.210;2023-05-29T10:43:54;8.15;;;2.60;;
46334;SDS011;32051;48.882;9.210;2023-05-29T10:46:20;3.50;;;2.63;;
46334;SDS011;32051;48.882;9.210;2023-05-29T10:48:49;6.25;;;2.28;;
46334;SDS011;32051;48.882;9.210;2023-05-29T10:51:25;7.05;;;2.90;;
46334;SDS011;32051;48.882;9.210;2023-05-29T10:53:51;15.15;;;2.60;;
46334;SDS011;32051;48.882;9.210;2023-05-29T10:56:21;5.13;;;3.17;;
46334;SDS011;32051;48.882;9.210;2023-05-29T10:58:55;2.88;;;2.50;;
46334;SDS011;32051;48.882;9.210;2023-05-29T11:01:23;4.05;;;2.35;;
46334;SDS011;32051;48.882;9.210;2023-05-29T11:03:53;3.88;;;2.97;;
46334;SDS011;32051;48.882;9.210;2023-05-29T11:06:41;7.53;;;2.60;;
46334;SDS011;32051;48.882;9.210;2023-05-29T11:09:12;4.80;;;2.20;;
46334;SDS011;32051;48.882;9.210;2023-05-29T11:14:54;2.38;;;1.98;;
46334;SDS011;32051;48.882;9.210;2023-05-29T11:17:30;6.85;;;2.30;;
46334;SDS011;32051;48.882;9.210;2023-05-29T11:20:00;2.92;;;2.53;;
46334;SDS011;32051;48.882;9.210;2023-05-29T11:22:30;4.22;;;2.03;;
46334;SDS011;32051;48.882;9.210;2023-05-29T11:25:07;2.45;;;2.22;;
46334;SDS011;32051;48.882;9.210;2023-05-29T11:27:33;3.20;;;2.30;;
46334;SDS011;32051;48.882;9.210;2023-05-29T11:30:00;2.67;;;1.88;;
46334;SDS011;32051;48.882;9.210;2023-05-29T11:32:26;3.50;;;2.28;;
46334;SDS011;32051;48.882;9.210;2023-05-29T11:34:53;3.05;;;1.98;;
46334;SDS011;32051;48.882;9.210;2023-05-29T11:37:21;2.47;;;1.92;;
46334;SDS011;32051;48.882;9.210;2023-05-29T11:39:47;2.85;;;2.60;;
46334;SDS011;32051;48.882;9.210;2023-05-29T11:42:15;9.77;;;1.70;;
46334;SDS011;32051;48.882;9.210;2023-05-29T11:44:41;7.32;;;2.67;;
46334;SDS011;32051;48.882;9.210;2023-05-29T11:47:08;6.07;;;2.13;;
46334;SDS011;32051;48.882;9.210;2023-05-29T11:49:35;5.43;;;3.20;;
46334;SDS011;32051;48.882;9.210;2023-05-29T11:52:05;2.85;;;1.58;;
46334;SDS011;32051;48.882;9.210;2023-05-29T11:54:33;5.57;;;2.28;;
46334;SDS011;32051;48.882;9.210;2023-05-29T11:56:59;6.43;;;1.90;;
46334;SDS011;32051;48.882;9.210;2023-05-29T11:59:29;3.97;;;1.85;;
46334;SDS011;32051;48.882;9.210;2023-05-29T12:01:55;2.75;;;2.00;;
46334;SDS011;32051;48.882;9.210;2023-05-29T12:04:21;4.63;;;1.88;;
46334;SDS011;32051;48.882;9.210;2023-05-29T12:06:46;3.13;;;1.60;;
46334;SDS011;32051;48.882;9.210;2023-05-29T12:09:28;2.38;;;2.17;;
46334;SDS011;32051;48.882;9.210;2023-05-29T12:12:01;10.25;;;2.47;;
46334;SDS011;32051;48.882;9.210;2023-05-29T12:14:27;2.08;;;1.88;;
46334;SDS011;32051;48.882;9.210;2023-05-29T12:16:53;3.25;;;2.38;;
46334;SDS011;32051;48.882;9.210;2023-05-29T12:19:19;2.10;;;1.88;;
46334;SDS011;32051;48.882;9.210;2023-05-29T12:21:45;3.05;;;1.55;;
46334;SDS011;32051;48.882;9.210;2023-05-29T12:24:11;2.25;;;1.85;;
46334;SDS011;32051;48.882;9.210;2023-05-29T12:26:37;2.60;;;1.77;;
46334;SDS011;32051;48.882;9.210;2023-05-29T12:29:03;9.20;;;2.15;;
46334;SDS011;32051;48.882;9.210;2023-05-29T12:31:30;1.90;;;1.80;;
46334;SDS011;32051;48.882;9.210;2023-05-29T12:34:06;3.47;;;2.40;;
46334;SDS011;32051;48.882;9.210;2023-05-29T12:36:40;2.13;;;1.67;;
46334;SDS011;32051;48.882;9.210;2023-05-29T12:39:08;2.88;;;2.67;;
46334;SDS011;32051;48.882;9.210;2023-05-29T12:41:34;5.25;;;1.90;;
46334;SDS011;32051;48.882;9.210;2023-05-29T12:44:02;5.90;;;2.00;;
46334;SDS011;32051;48.882;9.210;2023-05-29T12:46:35;3.80;;;1.90;;
46334;SDS011;32051;48.882;9.210;2023-05-29T12:49:12;5.40;;;1.88;;
46334;SDS011;32051;48.882;9.210;2023-05-29T12:51:43;3.20;;;1.73;;
46334;SDS011;32051;48.882;9.210;2023-05-29T12:54:10;6.18;;;2.85;;
46334;SDS011;32051;48.882;9.210;2023-05-29T12:56:36;2.60;;;2.13;;
46334;SDS011;32051;48.882;9.210;2023-05-29T12:59:05;4.07;;;2.00;;
46334;SDS011;32051;48.882;9.210;2023-05-29T13:01:32;2.35;;;2.00;;
46334;SDS011;32051;48.882;9.210;2023-05-29T13:03:58;4.50;;;1.67;;
46334;SDS011;32051;48.882;9.210;2023-05-29T13:06:24;1.80;;;1.70;;
46334;SDS011;32051;48.882;9.210;2023-05-29T13:08:51;1.90;;;1.80;;
46334;SDS011;32051;48.882;9.210;2023-05-29T13:11:17;2.30;;;2.10;;
46334;SDS011;32051;48.882;9.210;2023-05-29T13:13:43;2.85;;;2.10;;
46334;SDS011;32051;48.882;9.210;2023-05-29T13:16:09;2.70;;;2.50;;
46334;SDS011;32051;48.882;9.210;2023-05-29T13:18:35;2.35;;;1.90;;
46334;SDS011;32051;48.882;9.210;2023-05-29T13:21:01;2.35;;;1.63;;
46334;SDS011;32051;48.882;9.210;2023-05-29T13:23:27;6.05;;;1.80;;
46334;SDS011;32051;48.882;9.210;2023-05-29T13:25:53;2.95;;;1.92;;
46334;SDS011;32051;48.882;9.210;2023-05-29T13:28:19;2.85;;;1.95;;
46334;SDS011;32051;48.882;9.210;2023-05-29T13:30:46;3.78;;;1.50;;
46334;SDS011;32051;48.882;9.210;2023-05-29T13:33:12;3.33;;;1.65;;
46334;SDS011;32051;48.882;9.210;2023-05-29T13:35:38;2.78;;;1.90;;
46334;SDS011;32051;48.882;9.210;2023-05-29T13:38:05;2.45;;;2.05;;
46334;SDS011;32051;48.882;9.210;2023-05-29T13:40:31;2.42;;;1.90;;
46334;SDS011;32051;48.882;9.210;2023-05-29T13:42:57;2.03;;;1.90;;
46334;SDS011;32051;48.882;9.210;2023-05-29T13:45:23;3.38;;;1.67;;
46334;SDS011;32051;48.882;9.210;2023-05-29T13:47:49;2.30;;;1.98;;
46334;SDS011;32051;48.882;9.210;2023-05-29T13:50:15;2.47;;;1.70;;
46334;SDS011;32051;48.882;9.210;2023-05-29T13:52:41;2.17;;;1.98;;
46334;SDS011;32051;48.882;9.210;2023-05-29T13:55:07;4.00;;;1.73;;
46334;SDS011;32051;48.882;9.210;2023-05-29T13:57:36;4.93;;;1.90;;
46334;SDS011;32051;48.882;9.210;2023-05-29T14:00:03;4.72;;;2.05;;
46334;SDS011;32051;48.882;9.210;2023-05-29T14:02:30;2.13;;;1.45;;
46334;SDS011;32051;48.882;9.210;2023-05-29T14:04:56;1.80;;;1.70;;
46334;SDS011;32051;48.882;9.210;2023-05-29T14:07:22;5.82;;;1.65;;
46334;SDS011;32051;48.882;9.210;2023-05-29T14:09:49;1.77;;;1.63;;
46334;SDS011;32051;48.882;9.210;2023-05-29T14:12:15;2.53;;;1.90;;
46334;SDS011;32051;48.882;9.210;2023-05-29T14:14:42;2.13;;;1.95;;
46334;SDS011;32051;48.882;9.210;2023-05-29T14:17:07;3.88;;;1.65;;
46334;SDS011;32051;48.882;9.210;2023-05-29T14:19:34;2.60;;;1.88;;
46334;SDS011;32051;48.882;9.210;2023-05-29T14:22:00;5.97;;;2.08;;
46334;SDS011;32051;48.882;9.210;2023-05-29T14:24:26;4.32;;;1.92;;
46334;SDS011;32051;48.882;9.210;2023-05-29T14:26:52;3.40;;;1.58;;
46334;SDS011;32051;48.882;9.210;2023-05-29T14:29:18;2.13;;;2.03;;
46334;SDS011;32051;48.882;9.210;2023-05-29T14:31:44;2.33;;;2.10;;
46334;SDS011;32051;48.882;9.210;2023-05-29T14:34:10;2.75;;;1.52;;
46334;SDS011;32051;48.882;9.210;2023-05-29T14:36:37;6.53;;;1.65;;
46334;SDS011;32051;48.882;9.210;2023-05-29T14:39:03;4.93;;;1.83;;
46334;SDS011;32051;48.882;9.210;2023-05-29T14:41:29;2.17;;;1.98;;
46334;SDS011;32051;48.882;9.210;2023-05-29T14:43:55;5.05;;;1.63;;
46334;SDS011;32051;48.882;9.210;2023-05-29T14:46:25;4.13;;;1.85;;
46334;SDS011;32051;48.882;9.210;2023-05-29T14:48:52;1.70;;;1.60;;
46334;SDS011;32051;48.882;9.210;2023-05-29T14:51:19;3.38;;;1.48;;
46334;SDS011;32051;48.882;9.210;2023-05-29T14:53:45;3.20;;;1.90;;
46334;SDS011;32051;48.882;9.210;2023-05-29T14:56:12;2.38;;;1.90;;
46334;SDS011;32051;48.882;9.210;2023-05-29T14:58:37;7.13;;;1.85;;
46334;SDS011;32051;48.882;9.210;2023-05-29T15:01:03;3.13;;;1.67;;
46334;SDS011;32051;48.882;9.210;2023-05-29T15:03:29;2.03;;;1.92;;
46334;SDS011;32051;48.882;9.210;2023-05-29T15:05:55;2.90;;;1.75;;
46334;SDS011;32051;48.882;9.210;2023-05-29T15:08:22;4.10;;;1.52;;